Time;durP1;ratioP1;P1;durP2;ratioP2;P2;SDS_P1;SDS_P2;PMS_P1;PMS_P2;Temp;Humidity;BMP_temperature;BMP_pressure;BME280_temperature;BME280_humidity;BME280_pressure;Samples;Min_cycle;Max_cycle;Signal;HPM_P1;HPM_P2
2023/09/13 00:00:54;;;;;;;2.13;1.63;;;18.90;66.80;;;;;;5052493;28;20037;-67
2023/09/13 00:03:20;;;;;;;2.20;1.60;;;18.90;66.90;;;;;;5054209;28;20032;-66
2023/09/13 00:05:46;;;;;;;2.92;1.67;;;18.90;67.00;;;;;;5051157;28;20040;-67
2023/09/13 00:08:12;;;;;;;2.80;1.60;;;18.80;66.90;;;;;;5054525;28;20036;-67
2023/09/13 00:10:38;;;;;;;2.10;1.70;;;18.80;66.90;;;;;;5051674;28;20028;-67
2023/09/13 00:13:04;;;;;;;3.10;1.50;;;18.80;67.00;;;;;;5050760;28;20032;-67
2023/09/13 00:15:30;;;;;;;1.80;1.70;;;18.70;66.90;;;;;;5051235;28;20044;-67
2023/09/13 00:17:56;;;;;;;2.58;1.40;;;18.70;66.90;;;;;;5051969;28;20036;-67
2023/09/13 00:20:22;;;;;;;2.00;1.80;;;18.60;66.80;;;;;;5057521;28;20519;-67
2023/09/13 00:22:48;;;;;;;3.10;1.70;;;18.60;66.90;;;;;;5058382;28;20117;-68
2023/09/13 00:25:14;;;;;;;3.65;1.80;;;18.50;66.80;;;;;;5060846;28;20414;-68
2023/09/13 00:27:40;;;;;;;2.03;1.83;;;18.50;66.90;;;;;;5055807;28;20033;-67
2023/09/13 00:30:08;;;;;;;5.40;2.25;;;18.50;66.90;;;;;;5054493;28;20165;-67
2023/09/13 00:32:35;;;;;;;2.22;1.55;;;18.40;66.80;;;;;;5053349;28;20094;-68
2023/09/13 00:35:01;;;;;;;2.22;1.75;;;18.40;66.90;;;;;;5048162;28;20039;-68
2023/09/13 00:37:27;;;;;;;2.67;1.55;;;18.40;66.90;;;;;;5053950;28;20434;-67
2023/09/13 00:39:53;;;;;;;3.42;1.75;;;18.30;66.80;;;;;;5054851;28;20033;-68
2023/09/13 00:42:19;;;;;;;2.85;2.08;;;18.30;66.90;;;;;;5054781;28;20041;-68
2023/09/13 00:44:44;;;;;;;2.33;1.50;;;18.30;66.90;;;;;;5059478;28;20037;-68
2023/09/13 00:47:12;;;;;;;2.22;1.85;;;18.20;66.80;;;;;;5058820;28;20543;-68
2023/09/13 00:49:39;;;;;;;1.90;1.42;;;18.20;66.90;;;;;;5055379;28;20484;-68
2023/09/13 00:52:05;;;;;;;3.80;2.08;;;18.10;66.80;;;;;;5060880;28;20051;-68
2023/09/13 00:54:31;;;;;;;2.83;1.83;;;18.10;66.80;;;;;;5057887;28;20075;-68
2023/09/13 00:56:58;;;;;;;3.58;1.85;;;18.10;66.80;;;;;;5058616;28;20067;-68
2023/09/13 00:59:25;;;;;;;2.97;1.70;;;18.10;66.90;;;;;;5060571;28;20091;-68
2023/09/13 01:01:51;;;;;;;4.30;2.78;;;18.10;67.50;;;;;;5059756;28;20406;-68
2023/09/13 01:04:17;;;;;;;2.33;1.67;;;18.10;67.00;;;;;;5062333;28;20041;-68
2023/09/13 01:06:44;;;;;;;2.70;1.92;;;18.00;66.80;;;;;;5061806;28;20064;-68
2023/09/13 01:09:10;;;;;;;2.90;1.70;;;18.00;66.80;;;;;;5055746;28;20041;-68
2023/09/13 01:11:36;;;;;;;4.50;2.58;;;17.90;66.70;;;;;;5061240;28;20028;-67
2023/09/13 01:14:02;;;;;;;3.38;1.83;;;17.90;66.80;;;;;;5058260;28;20040;-67
2023/09/13 01:16:45;;;;;;;2.95;1.80;;;17.90;66.80;;;;;;5053861;28;20069;-67
2023/09/13 01:19:17;;;;;;;2.97;1.77;;;17.90;66.90;;;;;;5054303;28;20195;-67
2023/09/13 01:22:07;;;;;;;2.53;1.95;;;17.80;66.70;;;;;;5057060;28;20480;-68
2023/09/13 01:25:02;;;;;;;2.50;1.58;;;17.90;67.00;;;;;;5047166;28;20044;-67
2023/09/13 01:28:09;;;;;;;5.10;2.60;;;17.80;66.80;;;;;;5055401;28;20032;-67
2023/09/13 01:30:37;;;;;;;3.28;2.55;;;17.80;66.80;;;;;;5055990;28;20119;-68
2023/09/13 01:33:04;;;;;;;2.83;2.28;;;17.80;66.80;;;;;;5058129;28;20043;-67
2023/09/13 01:35:30;;;;;;;2.80;2.15;;;17.80;66.80;;;;;;5054603;28;20063;-66
2023/09/13 01:37:56;;;;;;;2.35;2.15;;;17.80;66.80;;;;;;5055122;28;20083;-67
2023/09/13 01:40:25;;;;;;;3.45;2.10;;;17.80;66.80;;;;;;5059087;28;20669;-67
2023/09/13 01:42:54;;;;;;;2.65;2.28;;;17.80;66.80;;;;;;5060371;28;20099;-67
2023/09/13 01:45:20;;;;;;;3.65;2.63;;;17.80;66.80;;;;;;5058041;28;20040;-67
2023/09/13 01:47:47;;;;;;;2.25;2.05;;;17.80;66.90;;;;;;5046345;28;20083;-68
2023/09/13 01:50:14;;;;;;;3.05;2.28;;;17.80;66.90;;;;;;5072248;28;20120;-67
2023/09/13 01:52:40;;;;;;;4.25;3.22;;;17.80;66.80;;;;;;5057425;28;20224;-67
2023/09/13 01:55:07;;;;;;;2.42;2.20;;;17.80;66.80;;;;;;5053434;28;20465;-67
2023/09/13 01:57:33;;;;;;;2.58;2.33;;;17.80;66.80;;;;;;5057447;28;20036;-68
2023/09/13 01:59:59;;;;;;;3.60;2.55;;;17.80;66.80;;;;;;5051685;28;20040;-66
2023/09/13 02:02:25;;;;;;;3.83;2.60;;;17.70;66.60;;;;;;5047572;28;20041;-67
2023/09/13 02:04:52;;;;;;;4.25;2.50;;;17.70;66.60;;;;;;5056741;28;20033;-67
2023/09/13 02:07:18;;;;;;;4.28;2.00;;;17.70;66.60;;;;;;5059394;28;20115;-68
2023/09/13 02:09:44;;;;;;;3.97;2.25;;;17.80;66.80;;;;;;5052458;28;20116;-68
2023/09/13 02:12:12;;;;;;;2.72;2.40;;;17.70;66.60;;;;;;5062361;28;20032;-66
2023/09/13 02:14:41;;;;;;;4.97;3.08;;;17.70;66.60;;;;;;5060941;28;20025;-67
2023/09/13 02:17:09;;;;;;;4.05;2.17;;;17.70;66.60;;;;;;5062652;28;20036;-67
2023/09/13 02:19:36;;;;;;;3.70;2.05;;;17.70;66.60;;;;;;5059268;28;20106;-68
2023/09/13 02:22:03;;;;;;;5.82;2.10;;;17.70;66.60;;;;;;5055546;28;20035;-68
2023/09/13 02:24:32;;;;;;;4.00;2.42;;;17.70;66.60;;;;;;5059860;28;20028;-68
2023/09/13 02:26:58;;;;;;;2.95;2.00;;;17.70;66.50;;;;;;5059029;28;20032;-67
2023/09/13 02:29:26;;;;;;;3.20;2.90;;;17.70;66.60;;;;;;5061021;28;20491;-67
2023/09/13 02:31:52;;;;;;;3.60;2.25;;;17.70;66.50;;;;;;5038284;28;20025;-67
2023/09/13 02:34:19;;;;;;;3.33;2.20;;;17.70;66.50;;;;;;5056064;28;20307;-68
2023/09/13 02:36:46;;;;;;;4.65;2.30;;;17.70;66.50;;;;;;5055896;28;20311;-67
2023/09/13 02:39:36;;;;;;;3.33;2.55;;;17.70;66.60;;;;;;5046726;28;20091;-68
2023/09/13 02:42:04;;;;;;;2.50;2.30;;;17.70;66.60;;;;;;5048093;28;20136;-67
2023/09/13 02:44:31;;;;;;;5.35;2.97;;;17.70;66.50;;;;;;5054716;28;20086;-69
2023/09/13 02:47:00;;;;;;;4.60;2.15;;;17.60;66.40;;;;;;5054787;28;20067;-68
2023/09/13 02:49:27;;;;;;;3.08;2.20;;;17.60;66.40;;;;;;5054333;28;20036;-69
2023/09/13 02:51:54;;;;;;;3.38;2.50;;;17.60;66.40;;;;;;5054201;28;20041;-68
2023/09/13 02:54:21;;;;;;;3.65;2.55;;;17.60;66.40;;;;;;5059754;28;20492;-68
2023/09/13 02:56:53;;;;;;;3.72;2.53;;;17.60;66.40;;;;;;5049520;28;20029;-69
2023/09/13 02:59:19;;;;;;;4.88;2.75;;;17.60;66.40;;;;;;5055422;28;20083;-68
2023/09/13 03:01:47;;;;;;;4.97;2.50;;;17.60;66.30;;;;;;5047197;28;20086;-68
2023/09/13 03:04:13;;;;;;;3.50;2.15;;;17.50;66.20;;;;;;5049934;28;20531;-68
2023/09/13 03:06:40;;;;;;;3.83;2.30;;;17.50;66.10;;;;;;5052976;28;20037;-67
2023/09/13 03:09:06;;;;;;;3.08;1.90;;;17.60;66.30;;;;;;5036081;28;20035;-68
2023/09/13 03:11:38;;;;;;;4.07;2.50;;;17.50;66.10;;;;;;5052729;28;20112;-68
2023/09/13 03:14:07;;;;;;;3.92;2.80;;;17.50;66.10;;;;;;5060896;28;20500;-67
2023/09/13 03:16:34;;;;;;;4.32;2.60;;;17.50;66.10;;;;;;5055382;28;20032;-67
2023/09/13 03:19:03;;;;;;;5.53;2.92;;;17.50;66.10;;;;;;5051912;28;20130;-68
2023/09/13 03:21:34;;;;;;;3.10;2.25;;;17.50;66.10;;;;;;5052809;28;20040;-68
2023/09/13 03:24:00;;;;;;;3.83;2.10;;;17.50;66.10;;;;;;5043569;28;20383;-68
2023/09/13 03:26:28;;;;;;;3.97;2.92;;;17.50;66.10;;;;;;5049237;28;20051;-66
2023/09/13 03:28:55;;;;;;;5.80;2.60;;;17.40;65.90;;;;;;5056004;28;20041;-68
2023/09/13 03:31:24;;;;;;;2.90;2.40;;;17.40;66.00;;;;;;5047547;28;20029;-66
2023/09/13 03:33:52;;;;;;;3.88;2.33;;;17.40;66.00;;;;;;5055608;28;20032;-69
2023/09/13 03:36:19;;;;;;;3.15;2.50;;;17.40;66.00;;;;;;5051155;28;20217;-67
2023/09/13 03:38:49;;;;;;;3.17;2.40;;;17.40;66.00;;;;;;5050647;28;20614;-67
2023/09/13 03:41:20;;;;;;;4.70;2.47;;;17.40;66.00;;;;;;5055536;28;20036;-67
2023/09/13 03:43:47;;;;;;;7.57;3.38;;;17.40;66.00;;;;;;5048611;28;20075;-66
2023/09/13 03:46:13;;;;;;;4.03;2.20;;;17.40;66.00;;;;;;5053291;28;20028;-66
2023/09/13 03:48:40;;;;;;;3.55;2.53;;;17.40;66.00;;;;;;5026466;28;20271;-68
2023/09/13 03:51:07;;;;;;;5.10;2.17;;;17.40;66.00;;;;;;5056114;28;20102;-69
2023/09/13 03:53:34;;;;;;;4.82;2.80;;;17.30;65.90;;;;;;5057121;28;20036;-68
2023/09/13 03:56:01;;;;;;;4.07;2.22;;;17.30;65.90;;;;;;5055742;28;20033;-69
2023/09/13 03:58:28;;;;;;;3.05;2.40;;;17.30;66.00;;;;;;5052248;28;20049;-69
2023/09/13 04:00:55;;;;;;;3.55;2.13;;;17.20;65.80;;;;;;5055420;28;20044;-69
2023/09/13 04:03:21;;;;;;;3.78;2.10;;;17.20;65.80;;;;;;5050472;28;20021;-67
2023/09/13 04:05:48;;;;;;;3.50;2.00;;;17.20;65.80;;;;;;5062055;28;20354;-66
2023/09/13 04:08:14;;;;;;;5.15;2.35;;;17.10;65.80;;;;;;5056553;28;20036;-67
2023/09/13 04:10:40;;;;;;;4.80;3.10;;;17.10;65.80;;;;;;5056408;28;20044;-66
2023/09/13 04:13:06;;;;;;;3.10;1.95;;;17.10;65.90;;;;;;5057095;28;20162;-67
2023/09/13 04:15:33;;;;;;;3.83;1.90;;;17.10;66.00;;;;;;5061990;28;20125;-67
2023/09/13 04:17:59;;;;;;;3.67;2.08;;;17.00;65.80;;;;;;5058838;28;20492;-68
2023/09/13 04:20:25;;;;;;;2.97;1.98;;;17.00;65.90;;;;;;5058456;28;20115;-68
2023/09/13 04:22:51;;;;;;;3.95;1.88;;;17.00;65.90;;;;;;5066748;28;20114;-68
2023/09/13 04:25:17;;;;;;;2.72;2.00;;;16.90;65.80;;;;;;5053896;28;20036;-67
2023/09/13 04:27:44;;;;;;;3.95;2.08;;;16.90;65.90;;;;;;5052132;28;20044;-68
2023/09/13 04:30:12;;;;;;;2.55;2.17;;;16.90;65.90;;;;;;5062483;28;20366;-68
2023/09/13 04:32:39;;;;;;;3.83;2.70;;;16.80;65.80;;;;;;5057574;28;20041;-68
2023/09/13 04:35:07;;;;;;;5.07;2.58;;;16.80;65.80;;;;;;5056071;28;20033;-68
2023/09/13 04:37:34;;;;;;;6.88;2.53;;;16.80;65.80;;;;;;5053125;28;20052;-66
2023/09/13 04:40:12;;;;;;;3.38;2.13;;;16.80;65.90;;;;;;5060207;28;20202;-68
2023/09/13 04:42:43;;;;;;;3.05;2.28;;;16.70;65.70;;;;;;5053117;28;20129;-67
2023/09/13 04:45:10;;;;;;;5.70;2.30;;;16.70;65.80;;;;;;5059420;28;20115;-67
2023/09/13 04:47:39;;;;;;;4.50;2.42;;;16.70;65.90;;;;;;5051151;28;20044;-68
2023/09/13 04:50:06;;;;;;;2.67;2.08;;;16.60;65.70;;;;;;5054204;28;20123;-67
2023/09/13 04:52:31;;;;;;;4.72;2.55;;;16.60;65.80;;;;;;5044204;28;20037;-66
2023/09/13 04:54:57;;;;;;;5.18;2.55;;;16.60;65.80;;;;;;5054843;28;20040;-67
2023/09/13 04:57:23;;;;;;;3.63;2.38;;;16.60;65.80;;;;;;5051883;28;20687;-67
2023/09/13 04:59:50;;;;;;;3.35;2.22;;;16.50;65.70;;;;;;5057422;28;20499;-67
2023/09/13 05:02:19;;;;;;;3.75;2.65;;;16.50;65.70;;;;;;5047268;28;20060;-67
2023/09/13 05:04:47;;;;;;;4.25;2.17;;;16.50;65.80;;;;;;5047169;28;20037;-66
2023/09/13 05:07:13;;;;;;;2.97;2.08;;;16.50;65.80;;;;;;5056603;28;20032;-67
2023/09/13 05:09:40;;;;;;;3.03;2.55;;;16.40;65.70;;;;;;5051781;28;20098;-67
2023/09/13 05:12:07;;;;;;;3.30;2.00;;;16.40;65.70;;;;;;5053666;28;20472;-68
2023/09/13 05:14:33;;;;;;;2.67;1.95;;;16.40;65.80;;;;;;5047294;28;20037;-66
2023/09/13 05:17:00;;;;;;;3.45;2.70;;;16.30;65.60;;;;;;5047409;28;20029;-67
2023/09/13 05:19:26;;;;;;;5.15;2.28;;;16.30;65.70;;;;;;5044908;28;20049;-67
2023/09/13 05:21:52;;;;;;;5.75;2.50;;;16.30;65.70;;;;;;5043217;28;20074;-67
2023/09/13 05:24:18;;;;;;;4.18;1.90;;;16.30;65.70;;;;;;5043907;28;20033;-67
2023/09/13 05:26:44;;;;;;;4.35;2.25;;;16.20;65.60;;;;;;5042772;28;20032;-68
2023/09/13 05:29:10;;;;;;;4.45;2.90;;;16.20;65.60;;;;;;5046019;28;20071;-68
2023/09/13 05:31:36;;;;;;;3.28;2.35;;;16.10;65.50;;;;;;5046832;28;20036;-68
2023/09/13 05:34:02;;;;;;;2.58;1.90;;;16.10;65.50;;;;;;5047630;28;20553;-67
2023/09/13 05:36:28;;;;;;;3.95;2.03;;;16.10;65.50;;;;;;5052014;28;20056;-67
2023/09/13 05:38:54;;;;;;;4.97;2.88;;;16.10;65.60;;;;;;5064133;28;20122;-65
2023/09/13 05:41:20;;;;;;;4.43;2.65;;;16.10;65.60;;;;;;5058788;28;20657;-67
2023/09/13 05:43:46;;;;;;;3.80;2.20;;;16.10;65.70;;;;;;5058006;28;20548;-66
2023/09/13 05:46:12;;;;;;;3.05;2.10;;;16.10;65.70;;;;;;5057453;28;20033;-67
2023/09/13 05:48:38;;;;;;;4.20;2.42;;;16.00;65.50;;;;;;5055736;28;20491;-66
2023/09/13 05:51:04;;;;;;;3.45;2.53;;;16.00;65.60;;;;;;5054258;28;20396;-65
2023/09/13 05:53:31;;;;;;;4.10;2.67;;;16.00;65.60;;;;;;5056623;28;20039;-66
2023/09/13 05:55:57;;;;;;;2.92;2.40;;;16.00;65.70;;;;;;5058029;28;20048;-66
2023/09/13 05:58:23;;;;;;;3.83;2.30;;;15.90;65.50;;;;;;5063014;28;20044;-67
2023/09/13 06:00:51;;;;;;;8.27;3.13;;;16.00;65.70;;;;;;5051672;28;20033;-66
2023/09/13 06:03:18;;;;;;;4.00;2.65;;;15.90;65.50;;;;;;5052597;28;20405;-66
2023/09/13 06:05:51;;;;;;;7.18;2.70;;;16.00;65.70;;;;;;5050320;28;20036;-67
2023/09/13 06:08:20;;;;;;;2.88;2.03;;;15.90;65.50;;;;;;5055281;28;20512;-66
2023/09/13 06:10:46;;;;;;;4.95;2.72;;;15.80;65.30;;;;;;5054230;28;20139;-66
2023/09/13 06:13:21;;;;;;;5.28;3.20;;;15.80;65.30;;;;;;5046956;28;20047;-67
2023/09/13 06:15:47;;;;;;;7.65;3.67;;;15.80;65.30;;;;;;5053667;28;20064;-67
2023/09/13 06:18:14;;;;;;;5.13;2.67;;;15.80;65.30;;;;;;5052099;28;20029;-67
2023/09/13 06:20:40;;;;;;;4.82;3.33;;;15.80;65.30;;;;;;5050000;28;20037;-67
2023/09/13 06:23:06;;;;;;;4.90;2.58;;;15.80;65.30;;;;;;5054765;28;20040;-67
2023/09/13 06:25:32;;;;;;;5.00;3.03;;;15.80;65.30;;;;;;5056386;28;20123;-66
2023/09/13 06:27:58;;;;;;;5.72;2.60;;;15.80;65.30;;;;;;5054327;28;20054;-66
2023/09/13 06:30:24;;;;;;;6.75;3.00;;;15.80;65.20;;;;;;5054201;28;20040;-66
2023/09/13 06:32:50;;;;;;;4.95;3.33;;;15.80;65.20;;;;;;5055722;28;20558;-66
2023/09/13 06:35:16;;;;;;;4.53;2.70;;;15.90;65.40;;;;;;5052143;28;20567;-66
2023/09/13 06:37:44;;;;;;;7.18;3.33;;;15.90;65.40;;;;;;5055879;28;20111;-67
2023/09/13 06:40:11;;;;;;;4.72;3.28;;;15.90;65.30;;;;;;5064111;28;20040;-67
2023/09/13 06:42:38;;;;;;;5.82;2.80;;;15.90;65.20;;;;;;5058074;28;20043;-66
2023/09/13 06:45:04;;;;;;;5.28;2.95;;;15.90;65.20;;;;;;5052076;28;20040;-67
2023/09/13 06:47:31;;;;;;;5.90;2.83;;;16.00;65.30;;;;;;5055763;28;20091;-67
2023/09/13 06:49:57;;;;;;;5.38;2.80;;;16.10;65.40;;;;;;5055566;28;20090;-66
2023/09/13 06:52:29;;;;;;;6.53;2.92;;;16.00;65.20;;;;;;5056829;28;20413;-66
2023/09/13 06:54:55;;;;;;;7.20;3.53;;;16.10;65.30;;;;;;5056974;28;20044;-66
2023/09/13 06:57:21;;;;;;;4.57;2.47;;;16.10;65.20;;;;;;5056264;28;20040;-66
2023/09/13 06:59:48;;;;;;;5.38;2.70;;;16.20;65.40;;;;;;5055559;28;20086;-68
2023/09/13 07:02:14;;;;;;;6.78;3.28;;;16.20;65.30;;;;;;5052920;28;20033;-67
2023/09/13 07:04:42;;;;;;;3.78;2.75;;;16.10;65.10;;;;;;5049515;28;20044;-67
2023/09/13 07:07:11;;;;;;;8.23;3.05;;;16.10;65.10;;;;;;5060565;28;20036;-67
2023/09/13 07:09:37;;;;;;;6.40;3.55;;;16.10;65.10;;;;;;5055925;28;20135;-67
2023/09/13 07:12:04;;;;;;;5.63;3.03;;;16.20;65.20;;;;;;5057664;28;20032;-67
2023/09/13 07:14:30;;;;;;;6.25;2.67;;;16.10;65.10;;;;;;5054240;28;20253;-66
2023/09/13 07:16:56;;;;;;;5.03;2.97;;;16.10;65.10;;;;;;5050432;28;20462;-66
2023/09/13 07:19:25;;;;;;;6.43;3.00;;;16.10;65.10;;;;;;5055360;28;20094;-66
2023/09/13 07:21:51;;;;;;;7.70;2.50;;;16.10;65.10;;;;;;5048270;28;20023;-66
2023/09/13 07:24:24;;;;;;;5.97;2.72;;;16.10;65.10;;;;;;5054897;28;20468;-66
2023/09/13 07:26:50;;;;;;;6.13;2.30;;;16.20;65.20;;;;;;5052415;28;20032;-66
2023/09/13 07:29:18;;;;;;;6.43;2.00;;;16.20;65.20;;;;;;5055898;28;20500;-67
2023/09/13 07:31:44;;;;;;;3.90;2.10;;;16.20;65.20;;;;;;5052116;28;20146;-66
2023/09/13 07:34:10;;;;;;;6.15;2.33;;;16.20;65.10;;;;;;5056842;28;20423;-66
2023/09/13 07:36:36;;;;;;;4.55;2.13;;;16.20;65.10;;;;;;5054118;28;20059;-66
2023/09/13 07:39:03;;;;;;;5.65;1.90;;;16.30;65.30;;;;;;5060791;28;20064;-67
2023/09/13 07:41:30;;;;;;;5.45;1.90;;;16.30;65.20;;;;;;5056759;28;20524;-67
2023/09/13 07:43:56;;;;;;;5.78;2.00;;;16.40;65.30;;;;;;5051106;28;20032;-66
2023/09/13 07:46:23;;;;;;;6.53;2.40;;;16.40;65.20;;;;;;5054230;28;20527;-66
2023/09/13 07:48:49;;;;;;;6.63;2.03;;;16.40;65.10;;;;;;5057792;28;20021;-66
2023/09/13 07:51:15;;;;;;;4.05;2.22;;;16.50;65.10;;;;;;5051519;28;20119;-66
2023/09/13 07:53:42;;;;;;;9.77;2.70;;;16.50;65.00;;;;;;5057068;28;20036;-67
2023/09/13 07:56:08;;;;;;;8.23;3.25;;;16.60;65.10;;;;;;5052169;28;20067;-66
2023/09/13 07:58:34;;;;;;;5.05;2.60;;;16.60;65.00;;;;;;5050707;28;20945;-66
2023/09/13 08:01:00;;;;;;;7.55;1.77;;;16.60;64.90;;;;;;5054708;28;20032;-67
2023/09/13 08:03:26;;;;;;;5.63;2.20;;;16.70;65.00;;;;;;5057111;28;20298;-66
2023/09/13 08:05:53;;;;;;;4.25;1.80;;;16.80;65.10;;;;;;5056081;28;20314;-66
2023/09/13 08:08:25;;;;;;;6.15;1.90;;;16.70;64.90;;;;;;5050536;28;20166;-66
2023/09/13 08:10:52;;;;;;;6.65;2.35;;;16.70;64.80;;;;;;5056216;28;20036;-66
2023/09/13 08:13:21;;;;;;;3.55;1.83;;;16.80;65.00;;;;;;5056961;28;20036;-66
2023/09/13 08:15:52;;;;;;;7.68;2.08;;;16.80;64.90;;;;;;5055073;28;20071;-67
2023/09/13 08:18:22;;;;;;;3.13;2.30;;;16.90;65.10;;;;;;5058757;28;20178;-66
2023/09/13 08:20:48;;;;;;;5.68;2.15;;;16.90;65.00;;;;;;5051115;28;20127;-66
2023/09/13 08:23:14;;;;;;;5.40;2.70;;;16.90;64.90;;;;;;5052141;28;20041;-66
2023/09/13 08:25:40;;;;;;;5.00;1.92;;;17.00;65.00;;;;;;5051330;28;20116;-67
2023/09/13 08:28:07;;;;;;;6.53;1.98;;;17.00;64.90;;;;;;5057069;28;20036;-66
2023/09/13 08:30:33;;;;;;;5.68;2.00;;;17.00;64.80;;;;;;5051513;28;20036;-66
2023/09/13 08:32:59;;;;;;;4.40;2.33;;;17.10;64.90;;;;;;5057697;28;20625;-66
2023/09/13 08:35:26;;;;;;;4.75;2.40;;;17.10;64.80;;;;;;5050678;28;20504;-66
2023/09/13 08:37:55;;;;;;;4.43;1.70;;;17.20;64.90;;;;;;5050792;28;20435;-67
2023/09/13 08:40:24;;;;;;;5.55;1.92;;;17.20;64.90;;;;;;5059730;28;20040;-66
2023/09/13 08:42:53;;;;;;;4.15;2.20;;;17.20;64.80;;;;;;5059937;28;20030;-66
2023/09/13 08:45:20;;;;;;;8.05;2.10;;;17.30;64.90;;;;;;5052079;28;20616;-66
2023/09/13 08:47:48;;;;;;;4.50;2.05;;;17.30;64.80;;;;;;5056097;28;20199;-67
2023/09/13 08:50:23;;;;;;;5.65;2.53;;;17.30;64.70;;;;;;5057948;28;20044;-67
2023/09/13 08:52:53;;;;;;;4.03;2.30;;;17.40;64.90;;;;;;5053915;28;20542;-66
2023/09/13 08:55:20;;;;;;;4.30;2.00;;;17.40;64.80;;;;;;5056091;28;20040;-66
2023/09/13 08:57:47;;;;;;;7.50;3.20;;;17.40;64.70;;;;;;5055418;28;20095;-67
2023/09/13 09:00:14;;;;;;;6.50;2.70;;;17.40;64.70;;;;;;5048064;28;20047;-67
2023/09/13 09:02:42;;;;;;;5.13;2.92;;;17.40;64.60;;;;;;5055174;28;20033;-67
2023/09/13 09:05:12;;;;;;;4.43;2.10;;;17.50;64.70;;;;;;5054629;28;20059;-67
2023/09/13 09:07:40;;;;;;;3.55;2.17;;;17.50;64.70;;;;;;5056970;28;20115;-66
2023/09/13 09:10:11;;;;;;;7.75;1.85;;;17.50;64.60;;;;;;5053005;28;20028;-66
2023/09/13 09:12:47;;;;;;;7.07;2.38;;;17.50;64.50;;;;;;5053179;28;20040;-67
2023/09/13 09:15:19;;;;;;;4.97;1.80;;;17.60;64.70;;;;;;5055680;28;20396;-67
2023/09/13 09:17:48;;;;;;;6.95;2.00;;;17.60;64.50;;;;;;5059924;28;20035;-67
2023/09/13 09:20:14;;;;;;;5.07;1.90;;;17.70;64.60;;;;;;5052995;28;20047;-67
2023/09/13 09:22:41;;;;;;;5.22;2.00;;;17.70;64.50;;;;;;5048330;28;20036;-66
2023/09/13 09:25:11;;;;;;;6.68;3.25;;;17.70;64.40;;;;;;5062639;28;20850;-66
2023/09/13 09:27:40;;;;;;;6.47;2.22;;;17.70;64.40;;;;;;5059923;28;20051;-66
2023/09/13 09:30:07;;;;;;;4.63;1.88;;;17.80;64.50;;;;;;5053928;28;20082;-67
2023/09/13 09:32:38;;;;;;;5.90;2.25;;;17.80;64.30;;;;;;5058848;28;20043;-66
2023/09/13 09:35:08;;;;;;;5.10;2.45;;;17.90;64.30;;;;;;5055679;28;20063;-66
2023/09/13 09:37:35;;;;;;;6.75;2.92;;;17.90;64.20;;;;;;5060274;28;20101;-66
2023/09/13 09:40:09;;;;;;;6.15;2.20;;;18.10;64.30;;;;;;5062194;28;20515;-66
2023/09/13 09:42:37;;;;;;;5.80;3.15;;;18.20;64.40;;;;;;5054334;28;20039;-66
2023/09/13 09:45:03;;;;;;;9.95;3.47;;;18.20;64.20;;;;;;5056391;28;20044;-66
2023/09/13 09:47:35;;;;;;;5.75;2.22;;;18.30;64.30;;;;;;5053324;28;20055;-66
2023/09/13 09:50:04;;;;;;;19.92;3.42;;;18.40;64.50;;;;;;5057878;28;20047;-66
2023/09/13 09:52:30;;;;;;;9.38;3.15;;;18.40;64.50;;;;;;5060087;28;20479;-66
2023/09/13 09:55:04;;;;;;;5.75;1.98;;;18.60;64.70;;;;;;5062347;28;20036;-66
2023/09/13 09:57:33;;;;;;;6.32;2.33;;;18.60;64.60;;;;;;5057194;28;20028;-66
2023/09/13 10:00:00;;;;;;;8.32;2.63;;;18.70;64.70;;;;;;5052041;28;20044;-66
2023/09/13 10:02:27;;;;;;;5.43;2.15;;;18.80;64.80;;;;;;5056764;28;20039;-66
2023/09/13 10:04:53;;;;;;;6.00;3.00;;;18.90;64.80;;;;;;5061692;28;20029;-66
2023/09/13 10:07:19;;;;;;;5.40;2.35;;;19.00;64.80;;;;;;5058436;28;20091;-66
2023/09/13 10:09:47;;;;;;;6.13;2.13;;;19.10;64.80;;;;;;5059435;28;20093;-66
2023/09/13 10:12:14;;;;;;;4.60;2.13;;;19.20;64.90;;;;;;5058929;28;20028;-66
2023/09/13 10:14:43;;;;;;;5.57;2.60;;;19.30;64.90;;;;;;5058203;28;20485;-66
2023/09/13 10:17:10;;;;;;;5.38;2.33;;;19.30;64.80;;;;;;5058587;28;20116;-66
2023/09/13 10:19:36;;;;;;;7.30;2.85;;;19.30;64.60;;;;;;5055191;28;20041;-66
2023/09/13 10:22:03;;;;;;;5.53;2.72;;;19.50;64.70;;;;;;5053479;28;20119;-66
2023/09/13 10:24:52;;;;;;;5.28;3.00;;;19.60;64.70;;;;;;5056172;28;20579;-66
2023/09/13 10:27:22;;;;;;;5.38;1.83;;;19.70;64.50;;;;;;5050967;28;20037;-66
2023/09/13 10:30:00;;;;;;;7.82;1.85;;;19.80;64.50;;;;;;5054893;28;20029;-66
2023/09/13 10:32:48;;;;;;;3.45;2.53;;;19.90;64.20;;;;;;5053101;28;20492;-66
2023/09/13 10:35:15;;;;;;;6.00;2.58;;;19.90;64.00;;;;;;5052368;28;20699;-66
2023/09/13 10:37:56;;;;;;;6.22;2.10;;;19.90;64.00;;;;;;5053353;28;20057;-66
2023/09/13 10:40:24;;;;;;;5.03;2.55;;;19.90;64.40;;;;;;5059691;28;20060;-66
2023/09/13 10:42:53;;;;;;;4.45;2.15;;;19.90;63.80;;;;;;5050853;28;20479;-66
2023/09/13 10:45:22;;;;;;;3.03;2.00;;;19.90;63.70;;;;;;5050248;28;20041;-66
2023/09/13 10:47:50;;;;;;;5.70;2.65;;;19.90;63.60;;;;;;5050728;28;20101;-66
2023/09/13 10:50:17;;;;;;;6.72;2.78;;;19.80;63.40;;;;;;5056122;28;20047;-66
2023/09/13 10:52:44;;;;;;;2.95;1.80;;;19.90;63.50;;;;;;5049666;28;20222;-66
2023/09/13 10:55:12;;;;;;;4.10;2.17;;;19.80;63.30;;;;;;5053906;28;20031;-66
2023/09/13 10:57:46;;;;;;;7.15;2.30;;;19.90;63.30;;;;;;5054794;28;20033;-66
2023/09/13 11:00:14;;;;;;;6.28;2.45;;;19.90;63.20;;;;;;5050411;28;20162;-66
2023/09/13 11:02:42;;;;;;;3.33;1.88;;;19.90;63.00;;;;;;5054443;28;20043;-66
2023/09/13 11:05:13;;;;;;;4.07;1.95;;;20.00;63.10;;;;;;5051225;28;20385;-66
2023/09/13 11:07:46;;;;;;;3.33;2.10;;;20.00;62.90;;;;;;5056858;28;20446;-66
2023/09/13 11:10:17;;;;;;;4.82;2.45;;;20.10;63.00;;;;;;5052190;28;20124;-67
2023/09/13 11:12:48;;;;;;;5.32;1.98;;;20.20;63.10;;;;;;5050024;28;20051;-67
2023/09/13 11:15:25;;;;;;;4.18;2.53;;;20.40;63.10;;;;;;5058759;28;20039;-66
2023/09/13 11:18:12;;;;;;;4.30;2.25;;;20.60;63.10;;;;;;5051823;28;20085;-66
2023/09/13 11:20:40;;;;;;;4.15;2.60;;;20.90;63.20;;;;;;5045715;28;20056;-66
2023/09/13 11:23:09;;;;;;;18.75;11.57;;;21.10;62.90;;;;;;5061531;28;20036;-66
2023/09/13 11:25:39;;;;;;;10.93;6.60;;;21.30;62.70;;;;;;5062868;28;20074;-66
2023/09/13 11:28:08;;;;;;;10.57;4.50;;;21.50;62.70;;;;;;5050813;28;20052;-67
2023/09/13 11:30:49;;;;;;;8.52;4.20;;;21.60;62.40;;;;;;5057061;28;20462;-66
2023/09/13 11:33:15;;;;;;;5.05;3.10;;;21.70;61.90;;;;;;5056019;28;20136;-66
2023/09/13 11:35:44;;;;;;;5.38;2.53;;;21.90;61.90;;;;;;5056650;28;20043;-66
2023/09/13 11:38:13;;;;;;;5.25;3.13;;;22.00;61.60;;;;;;5056855;28;20045;-66
2023/09/13 11:40:49;;;;;;;3.72;2.55;;;22.00;61.30;;;;;;5060745;28;20074;-66
2023/09/13 11:43:21;;;;;;;3.50;2.20;;;22.00;61.10;;;;;;5055870;28;20468;-66
2023/09/13 11:45:50;;;;;;;5.15;2.55;;;22.10;61.20;;;;;;5054998;28;20555;-66
2023/09/13 11:48:28;;;;;;;4.22;2.03;;;22.10;61.10;;;;;;5057115;28;20382;-66
2023/09/13 11:51:11;;;;;;;4.97;2.28;;;22.00;60.70;;;;;;5055422;28;20040;-66
2023/09/13 11:53:39;;;;;;;5.80;2.78;;;22.10;61.50;;;;;;5057142;28;20040;-66
2023/09/13 11:56:06;;;;;;;5.07;2.53;;;22.00;60.80;;;;;;5058903;28;20032;-66
2023/09/13 11:58:33;;;;;;;4.03;2.83;;;22.00;60.80;;;;;;5061335;28;20036;-66
2023/09/13 12:01:23;;;;;;;3.85;2.25;;;22.00;60.70;;;;;;5047752;28;20139;-66
2023/09/13 12:03:52;;;;;;;3.72;2.13;;;22.00;60.40;;;;;;5060323;28;20162;-66
2023/09/13 12:06:23;;;;;;;4.47;2.40;;;22.10;60.50;;;;;;5061579;28;20384;-66
2023/09/13 12:08:49;;;;;;;2.63;2.00;;;22.10;60.40;;;;;;5059760;28;20349;-66
2023/09/13 12:11:15;;;;;;;4.38;2.33;;;22.20;60.50;;;;;;5057515;28;20036;-66
2023/09/13 12:13:46;;;;;;;6.57;2.22;;;22.30;60.60;;;;;;5055390;28;20074;-67
2023/09/13 12:16:13;;;;;;;4.13;2.70;;;22.30;60.30;;;;;;5062722;28;20543;-66
2023/09/13 12:18:41;;;;;;;7.88;3.30;;;22.50;60.50;;;;;;5057089;28;20055;-67
2023/09/13 12:21:08;;;;;;;6.85;3.20;;;22.60;60.40;;;;;;5052468;28;20174;-66
2023/09/13 12:23:36;;;;;;;4.30;1.92;;;22.80;60.40;;;;;;5056391;28;20045;-66
2023/09/13 12:26:08;;;;;;;7.20;2.60;;;22.90;60.20;;;;;;5053867;28;20033;-66
2023/09/13 12:28:36;;;;;;;;;;;23.00;59.90;;;;;;5060227;28;20094;-66
2023/09/13 12:31:09;;;;;;;6.38;2.30;;;23.20;60.10;;;;;;5057729;28;19912;-66
2023/09/13 12:33:53;;;;;;;3.75;2.45;;;23.30;60.10;;;;;;5060325;28;20036;-66
2023/09/13 12:36:20;;;;;;;5.80;2.50;;;23.40;59.70;;;;;;5061738;28;20024;-66
2023/09/13 12:38:48;;;;;;;7.57;3.80;;;23.50;59.70;;;;;;5060265;28;20064;-66
2023/09/13 12:41:26;;;;;;;3.90;2.00;;;23.50;59.30;;;;;;5058404;28;20120;-66
2023/09/13 12:43:53;;;;;;;3.00;2.33;;;23.60;59.20;;;;;;5059281;28;20482;-67
2023/09/13 12:46:21;;;;;;;7.22;2.58;;;23.60;59.00;;;;;;5058645;28;20029;-66
2023/09/13 12:48:49;;;;;;;2.97;2.35;;;23.60;58.70;;;;;;5057972;28;20024;-66
2023/09/13 12:51:20;;;;;;;5.65;3.08;;;23.70;58.80;;;;;;5057906;28;20093;-66
2023/09/13 12:53:49;;;;;;;10.27;3.15;;;23.70;58.60;;;;;;5058392;28;20290;-66